Weather observations for the past three days for
Carlsbad, McClellan-Palomar Airport
Metric (Imperial)
Date Time (pdt) Wind (kph) Vis. (km) Weather Sky Cond. Temperature (ºC) Relative Humidity Wind Chill (°C) Heat Index (°C) Pressure Precipitation (cm)
Air Dwpt 6 hour altimeter (cm) sea level (mb) 1 hr 3 hr 6 hr
Max. Min.
03 00:53 SE 6 16.09 Fair CLR 18.9 15.6 81% 76.12 1014.7
02 23:53 E 6 16.09 Fair CLR 18.9 15.6 81% 76.15 1014.8
02 22:53 Calm 16.09 Fair CLR 19.4 16.1 22.8 19.4 81% 76.15 1014.9
02 21:53 Calm 16.09 Fair CLR 20 15.6 76% 76.15 1015.0
02 20:53 Calm 16.09 Fair CLR 20.6 16.1 76% 76.12 1014.6
02 19:53 Calm 16.09 Mostly Cloudy BKN017 20.6 16.7 78% 76.07 1014.0
02 18:53 Vrbl 6 16.09 Fair CLR 21.1 16.1 73% 76.07 1014.0
02 17:53 SW 11 16.09 Fair CLR 22.2 14.4 61% 76.07 1013.8
02 16:53 W 15 16.09 Fair CLR 22.2 15.6 23.3 22.2 66% 76.07 1013.9
02 15:53 W 15 16.09 Fair CLR 22.8 15.6 64% 76.1 1014.4
02 14:53 W 15 16.09 Fair CLR 22.8 15.6 64% 76.12 1014.7
02 13:53 SW 13 16.09 Fair CLR 22.8 16.1 66% 76.15 1015.0
02 12:53 W 11 G 30 16.09 Fair CLR 22.8 16.7 69% 76.2 1015.5
02 11:53 SW 13 16.09 Fair CLR 23.3 16.7 67% 76.2 1015.6
02 10:53 SW 13 16.09 Fair CLR 22.8 16.1 23.9 17.8 66% 76.23 1016.1
02 09:53 Vrbl 6 16.09 Fair CLR 22.2 15.6 66% 76.23 1015.8
02 08:53 S 9 16.09 A Few Clouds FEW017 21.1 16.1 73% 76.23 1015.8
02 07:53 E 6 16.09 Mostly Cloudy BKN018 19.4 16.1 81% 76.23 1015.8
02 06:53 Calm 16.09 Overcast OVC016 18.3 16.1 87% 76.2 1015.5
02 05:53 Calm 16.09 Overcast OVC016 18.3 16.1 87% 76.15 1015.0
02 04:53 E 6 16.09 Fair CLR 17.8 16.1 20.6 17.8 90% 76.15 1014.9
02 03:53 E 6 16.09 Fair CLR 18.3 16.1 87% 76.15 1015.0
02 02:53 Calm 16.09 Overcast OVC017 18.9 16.7 87% 76.17 1015.4
02 01:53 Calm 16.09 Mostly Cloudy BKN017 19.4 16.7 84% 76.2 1015.7
02 00:53 Calm 16.09 Fair CLR 20 16.7 81% 76.2 1015.6
01 23:53 Calm 16.09 A Few Clouds FEW016 20.6 16.7 78% 76.17 1015.3
01 22:53 Calm 16.09 Mostly Cloudy BKN015 20.6 17.2 22.8 20.6 81% 76.15 1015.1
01 21:53 Calm 16.09 Overcast OVC015 21.1 17.2 79% 76.17 1015.1
01 20:53 Calm 16.09 Mostly Cloudy BKN013 21.1 17.8 82% 76.1 1014.2
01 19:53 Calm 16.09 Fair CLR 21.1 17.8 82% 76.05 1013.5
01 18:53 W 11 16.09 Fair CLR 22.2 16.7 71% 76.05 1013.5
01 17:53 W 15 16.09 Fair CLR 22.8 16.7 69% 76.05 1013.4
01 16:53 Vrbl 7 16.09 Fair CLR 23.3 17.2 25 22.8 69% 76.07 1013.7
01 15:53 W 19 G 28 16.09 Fair CLR 23.3 16.7 67% 76.07 1014.0
01 14:53 W 20 G 33 16.09 Fair CLR 23.9 17.2 66% 25 76.1 1014.3
01 13:53 W 15 G 31 16.09 Fair CLR 23.9 16.1 62% 25 76.12 1014.5
01 12:53 W 17 G 26 16.09 Fair CLR 24.4 16.7 62% 25 76.15 1014.8
01 11:53 W 13 G 30 16.09 Fair CLR 24.4 17.2 64% 25 76.17 1015.1
01 10:53 W 13 16.09 Fair CLR 23.9 16.7 23.9 18.9 64% 25 76.17 1015.2
01 09:53 Vrbl 6 16.09 Fair CLR 23.3 16.7 67% 76.15 1015.1
01 08:53 N 6 16.09 Partly Cloudy SCT015 21.7 16.7 73% 76.15 1014.9
01 07:53 Calm 16.09 Fair CLR 20.6 16.7 78% 76.12 1014.5
01 06:53 Calm 16.09 Fair CLR 18.9 16.1 84% 76.1 1014.3
01 05:53 Calm 16.09 Fair CLR 18.9 16.7 87% 76.05 1013.6
01 04:53 Calm 16.09 Fair CLR 19.4 16.7 21.1 19.4 84% 76.05 1013.4
01 03:53 Calm 16.09 Fair CLR 20 17.2 84% 76.07 1013.8
01 02:53 Calm 16.09 Overcast OVC017 20.6 18.3 87% 76.07 1013.8
01 01:53 Calm 16.09 Overcast OVC015 21.1 18.3 84% 76.05 1013.6
01 00:53 Calm 16.09 Mostly Cloudy BKN011 20.6 18.3 87% 76.07 1013.7
31 23:53 Calm 16.09 Mostly Cloudy BKN010 20.6 17.8 84% 76.07 1013.8
31 22:53 SE 6 16.09 Mostly Cloudy BKN009 21.1 17.8 23.9 21.1 82% 76.07 1013.7
31 21:53 SE 6 16.09 Fair CLR 21.1 17.8 82% 76.05 1013.5
31 20:53 S 6 16.09 Fair CLR 21.1 17.8 82% 76.02 1013.3
31 18:53 W 9 16.09 Fair CLR 22.2 18.3 79% 75.92 1011.9
31 17:53 Vrbl 9 16.09 Fair CLR 22.8 17.8 74% 75.95 1012.3
31 16:53 SW 15 16.09 Fair CLR 23.3 18.3 25 23.3 74% 75.95 1012.3
31 15:53 SW 15 16.09 Fair CLR 24.4 18.9 72% 25 75.97 1012.4
31 13:53 W 13 16.09 Fair CLR 24.4 18.3 69% 25 76.02 1013.2
31 12:53 W 13 16.09 Fair CLR 24.4 18.3 69% 25 76.05 1013.4
31 11:53 W 13 16.09 Fair CLR 24.4 18.3 69% 25 76.05 1013.6
31 10:53 W 17 16.09 Fair CLR 24.4 18.3 24.4 21.7 69% 25 76.05 1013.5
31 09:53 Vrbl 7 16.09 Fair CLR 24.4 17.8 67% 25 76.02 1013.2
31 08:53 E 7 16.09 Mostly Cloudy BKN017 22.8 17.8 74% 76.02 1013.2
31 07:53 S 6 16.09 Overcast OVC017 21.7 17.8 79% 76 1012.9
31 06:53 Calm 16.09 Mostly Cloudy BKN017 21.7 17.8 79% 75.95 1012.2
31 05:53 SE 6 16.09 Overcast OVC016 21.7 17.8 79% 75.92 1011.9
31 04:53 S 6 16.09 Overcast OVC014 21.7 17.8 22.2 21.1 79% 75.92 1011.8
31 03:53 SW 6 16.09 Overcast OVC013 21.7 18.3 81% 75.92 1011.9
31 02:53 SE 6 16.09 Overcast OVC012 21.7 18.9 84% 75.92 1011.9
31 01:53 S 6 16.09 Overcast OVC014 21.7 18.9 84% 75.95 1011.9
Date Time (pdt) Wind (kph) Vis. (km) Weather Sky Cond. Air Dwpt Max. Min. Relative Humidity Wind Chill (°C) Heat Index (°C) altimeter (cm) sea level (mb) 1 hr 3 hr 6 hr
6 hour
Temperature (ºC) Pressure Precipitation (cm)